Time;durP1;ratioP1;P1;durP2;ratioP2;P2;SDS_P1;SDS_P2;PMS_P1;PMS_P2;Temp;Humidity;BMP_temperature;BMP_pressure;BME280_temperature;BME280_humidity;BME280_pressure;Samples;Min_cycle;Max_cycle;Signal;HPM_P1;HPM_P2
2021/11/19 00:00:24;;;;;;;63.13;32.48;;;;;;;2.92;88.78;98604.09;1681865;85;20966;-83
2021/11/19 00:02:53;;;;;;;64.95;32.75;;;;;;;2.75;91.24;98605.64;1668291;86;21514;-83
2021/11/19 00:05:22;;;;;;;63.17;33.50;;;;;;;2.72;89.61;98603.02;1647301;85;21026;-82
2021/11/19 00:07:48;;;;;;;64.87;33.98;;;;;;;2.70;90.32;98608.64;1641278;87;21019;-82
2021/11/19 00:10:15;;;;;;;58.95;31.50;;;;;;;2.67;90.52;98606.00;1647686;87;21036;-82
2021/11/19 00:12:43;;;;;;;63.25;32.48;;;;;;;2.64;90.94;98600.30;1657449;85;21006;-82
2021/11/19 00:15:12;;;;;;;64.32;34.20;;;;;;;2.64;90.83;98599.41;1673505;85;21010;-82
2021/11/19 00:17:40;;;;;;;68.95;34.63;;;;;;;2.64;90.36;98591.56;1670514;85;21419;-84
2021/11/19 00:20:11;;;;;;;69.55;34.38;;;;;;;2.61;91.55;98596.33;1674455;85;21041;-84
2021/11/19 00:22:39;;;;;;;65.92;34.25;;;;;;;2.62;90.13;98599.39;1642640;87;21022;-82
2021/11/19 00:25:09;;;;;;;63.95;34.05;;;;;;;2.64;89.74;98600.30;1642743;86;21115;-82
2021/11/19 00:27:37;;;;;;;66.87;34.67;;;;;;;2.63;89.81;98593.28;1642696;87;21431;-83
2021/11/19 00:30:12;;;;;;;58.55;30.95;;;;;;;2.63;89.49;98592.42;1679621;85;21462;-82
2021/11/19 00:32:39;;;;;;;55.43;29.45;;;;;;;2.61;89.18;98586.28;1642883;86;21006;-83
2021/11/19 00:35:10;;;;;;;67.17;34.27;;;;;;;2.54;89.13;98582.73;1642415;87;21050;-83
2021/11/19 00:37:38;;;;;;;65.85;33.28;;;;;;;2.48;88.93;98579.60;1642656;87;21006;-83
2021/11/19 00:40:10;;;;;;;66.42;35.45;;;;;;;2.41;89.07;98570.35;1642670;87;21026;-82
2021/11/19 00:42:36;;;;;;;67.90;34.60;;;;;;;2.34;89.25;98577.23;1659230;84;21378;-82
2021/11/19 00:45:04;;;;;;;68.10;35.58;;;;;;;2.28;88.89;98576.72;1669925;86;21042;-82
2021/11/19 00:47:33;;;;;;;67.10;35.30;;;;;;;2.24;89.15;98577.53;1680756;85;21067;-83
2021/11/19 00:50:00;;;;;;;69.53;34.20;;;;;;;2.18;90.33;98578.34;1684094;85;20973;-83
2021/11/19 00:52:27;;;;;;;60.80;31.52;;;;;;;2.14;89.50;98566.09;1683718;85;21454;-83
2021/11/19 00:54:55;;;;;;;65.08;32.53;;;;;;;2.09;89.11;98562.11;1683780;84;21395;-82
2021/11/19 00:57:24;;;;;;;61.92;33.48;;;;;;;2.05;90.40;98560.31;1675224;84;21026;-83
2021/11/19 00:59:51;;;;;;;63.00;32.50;;;;;;;2.03;90.00;98561.14;1673760;85;21367;-83
2021/11/19 01:02:24;;;;;;;57.67;30.68;;;;;;;2.03;89.89;98562.45;1674085;86;21025;-83
2021/11/19 01:04:53;;;;;;;38.15;21.85;;;;;;;2.02;90.01;98556.75;1655535;85;20950;-82
2021/11/19 01:07:24;;;;;;;42.98;22.17;;;;;;;2.02;89.78;98563.28;1669144;83;20998;-82
2021/11/19 01:09:56;;;;;;;47.08;23.42;;;;;;;2.00;89.99;98562.40;1682191;85;21046;-82
2021/11/19 01:12:29;;;;;;;38.20;20.55;;;;;;;2.00;89.98;98561.09;1684157;84;21029;-82
2021/11/19 01:15:18;;;;;;;32.48;18.98;;;;;;;1.95;89.69;98563.66;1686817;84;21022;-83
2021/11/19 01:17:53;;;;;;;40.12;23.25;;;;;;;1.89;89.68;98566.16;1685209;85;21053;-83
2021/11/19 01:20:53;;;;;;;46.53;25.05;;;;;;;1.83;90.10;98565.21;1675405;84;21023;-83
2021/11/19 01:23:23;;;;;;;45.78;26.17;;;;;;;1.81;89.95;98564.73;1671288;85;21431;-83
2021/11/19 01:25:55;;;;;;;41.68;23.32;;;;;;;1.80;90.03;98559.06;1649078;86;20993;-83
2021/11/19 01:28:23;;;;;;;55.25;28.17;;;;;;;1.80;89.95;98566.91;1626411;88;21098;-83
2021/11/19 01:31:01;;;;;;;51.33;26.80;;;;;;;1.77;90.12;98555.09;1641625;85;21050;-83
2021/11/19 01:33:29;;;;;;;50.70;27.52;;;;;;;1.75;89.71;98560.73;1670749;85;21034;-83
2021/11/19 01:35:59;;;;;;;52.20;28.25;;;;;;;1.67;90.76;98547.55;1647923;85;21076;-83
2021/11/19 01:38:29;;;;;;;45.28;23.62;;;;;;;1.62;89.96;98546.61;1677762;85;21034;-83
2021/11/19 01:41:08;;;;;;;48.00;25.05;;;;;;;1.57;89.38;98552.64;1676283;85;21150;-83
2021/11/19 01:43:37;;;;;;;45.67;24.52;;;;;;;1.50;89.33;98544.68;1687405;84;21021;-83
2021/11/19 01:46:10;;;;;;;51.83;26.20;;;;;;;1.45;89.13;98541.98;1693964;85;20989;-83
2021/11/19 01:48:41;;;;;;;56.37;29.27;;;;;;;1.41;89.16;98551.95;1674229;85;20978;-83
2021/11/19 01:51:28;;;;;;;48.90;23.85;;;;;;;1.37;89.44;98549.69;1693953;85;21120;-83
2021/11/19 01:54:06;;;;;;;47.27;25.17;;;;;;;1.34;89.26;98548.77;1693731;85;21017;-83
2021/11/19 01:56:58;;;;;;;51.25;25.90;;;;;;;1.29;89.15;98542.18;1690544;85;21089;-83
2021/11/19 01:59:39;;;;;;;37.53;19.52;;;;;;;1.23;89.16;98541.64;1667767;86;21026;-83
2021/11/19 02:02:12;;;;;;;45.30;23.47;;;;;;;1.18;88.93;98538.08;1653261;86;21018;-83
2021/11/19 02:04:50;;;;;;;49.77;25.95;;;;;;;1.14;89.08;98537.16;1674445;85;21061;-83
2021/11/19 02:07:31;;;;;;;50.20;25.62;;;;;;;1.12;90.26;98537.53;1684770;85;21526;-83
2021/11/19 02:10:44;;;;;;;43.68;22.45;;;;;;;1.14;90.49;98535.84;1678914;84;21002;-83
2021/11/19 02:13:41;;;;;;;37.67;19.30;;;;;;;1.15;89.60;98535.40;1670358;86;20994;-83
2021/11/19 02:16:20;;;;;;;44.80;23.32;;;;;;;1.12;89.45;98541.45;1670491;86;21041;-83
2021/11/19 02:19:16;;;;;;;33.58;19.12;;;;;;;1.12;90.72;98544.06;1670172;86;20983;-83
2021/11/19 02:22:03;;;;;;;39.53;21.02;;;;;;;1.16;90.06;98540.66;1670235;86;20970;-83
2021/11/19 02:24:59;;;;;;;40.63;20.62;;;;;;;1.17;90.19;98536.33;1666466;86;20998;-83
2021/11/19 02:27:41;;;;;;;42.53;22.87;;;;;;;1.18;90.72;98532.85;1674171;86;21038;-83
2021/11/19 02:30:14;;;;;;;43.92;22.15;;;;;;;1.24;90.64;98526.86;1675053;85;20962;-83
2021/11/19 02:32:56;;;;;;;44.30;24.00;;;;;;;1.24;91.17;98520.34;1643152;87;21045;-83
2021/11/19 02:35:28;;;;;;;43.08;20.10;;;;;;;1.29;90.83;98519.54;1641051;87;21038;-82
2021/11/19 02:38:00;;;;;;;40.78;22.07;;;;;;;1.30;90.47;98527.81;1649290;87;21820;-84
2021/11/19 02:40:32;;;;;;;40.90;21.77;;;;;;;1.26;90.47;98530.37;1649823;87;21038;-83
2021/11/19 02:43:07;;;;;;;35.45;17.65;;;;;;;1.24;90.35;98536.00;1663571;84;21001;-83
2021/11/19 02:45:39;;;;;;;36.63;19.42;;;;;;;1.23;90.07;98532.92;1671602;85;21082;-83
2021/11/19 02:48:10;;;;;;;35.38;18.77;;;;;;;1.17;89.89;98531.10;1673873;85;21009;-83
2021/11/19 02:50:37;;;;;;;43.52;23.87;;;;;;;1.13;89.85;98526.67;1657177;86;21045;-83
2021/11/19 02:53:07;;;;;;;37.10;18.32;;;;;;;1.10;90.15;98526.20;1669572;86;21010;-83
2021/11/19 02:55:38;;;;;;;31.77;17.07;;;;;;;1.07;89.75;98532.66;1671972;85;20990;-83
2021/11/19 02:58:11;;;;;;;31.30;16.40;;;;;;;1.01;89.45;98532.56;1670465;85;21096;-83
2021/11/19 03:00:43;;;;;;;;;;;;;;;0.94;89.24;98519.83;1679504;85;21002;-83
2021/11/19 03:03:10;;;;;;;43.05;22.90;;;;;;;0.84;89.75;98514.89;1667545;86;20110;-84
2021/11/19 03:05:37;;;;;;;43.38;22.67;;;;;;;0.76;90.22;98517.36;1669733;86;21026;-83
2021/11/19 03:08:04;;;;;;;49.55;24.15;;;;;;;0.74;89.93;98516.84;1654701;85;20982;-83
2021/11/19 03:10:37;;;;;;;41.60;22.02;;;;;;;0.69;90.04;98508.95;1650929;86;21021;-83
2021/11/19 03:13:07;;;;;;;38.20;19.87;;;;;;;0.68;89.95;98510.22;1671095;85;20977;-83
2021/11/19 03:15:38;;;;;;;38.88;19.45;;;;;;;0.67;89.65;98504.14;1674197;85;21522;-83
2021/11/19 03:18:11;;;;;;;41.75;21.17;;;;;;;0.61;89.31;98512.72;1671175;85;20979;-83
2021/11/19 03:20:40;;;;;;;32.55;18.52;;;;;;;0.56;89.44;98510.45;1682685;85;21026;-83
2021/11/19 03:23:07;;;;;;;36.65;18.27;;;;;;;0.52;89.44;98513.44;1683687;85;21030;-83
2021/11/19 03:25:38;;;;;;;36.60;18.27;;;;;;;0.48;89.24;98514.64;1683613;85;21029;-83
2021/11/19 03:28:11;;;;;;;36.58;19.80;;;;;;;0.42;89.46;98506.29;1663355;85;21033;-82
2021/11/19 03:30:40;;;;;;;40.55;20.92;;;;;;;0.42;89.70;98506.29;1693363;85;21045;-83
2021/11/19 03:33:13;;;;;;;41.58;20.82;;;;;;;0.42;89.66;98506.29;1693335;85;21053;-83
2021/11/19 03:35:41;;;;;;;43.17;21.35;;;;;;;0.44;89.57;98517.62;1687390;85;21034;-83
2021/11/19 03:38:08;;;;;;;38.65;19.00;;;;;;;0.47;89.56;98516.38;1680129;84;21021;-83
2021/11/19 03:40:39;;;;;;;33.08;17.82;;;;;;;0.50;89.50;98512.51;1674883;85;21050;-83
2021/11/19 03:43:11;;;;;;;38.50;19.85;;;;;;;0.52;89.49;98525.59;1674751;85;21013;-83
2021/11/19 03:45:44;;;;;;;34.03;19.02;;;;;;;0.54;89.71;98521.27;1679848;85;21030;-83
2021/11/19 03:48:12;;;;;;;34.23;18.60;;;;;;;0.57;89.72;98516.12;1682480;85;21029;-83
2021/11/19 03:50:45;;;;;;;33.10;17.52;;;;;;;0.57;89.82;98516.53;1680966;84;21049;-83
2021/11/19 03:53:16;;;;;;;32.00;15.88;;;;;;;0.60;90.02;98524.42;1678577;85;21532;-83
2021/11/19 03:55:46;;;;;;;31.27;16.57;;;;;;;0.65;90.07;98534.11;1670954;86;21423;-83
2021/11/19 03:58:18;;;;;;;28.85;16.20;;;;;;;0.72;90.27;98536.83;1675797;85;20954;-83
2021/11/19 04:00:50;;;;;;;38.85;17.27;;;;;;;0.75;90.29;98532.53;1656273;86;21045;-83
2021/11/19 04:03:18;;;;;;;27.55;15.35;;;;;;;0.78;90.24;98536.94;1683100;84;21411;-83
2021/11/19 04:05:46;;;;;;;33.80;16.93;;;;;;;0.78;90.35;98527.80;1688430;85;21509;-83
2021/11/19 04:08:14;;;;;;;30.57;17.00;;;;;;;0.78;90.26;98530.41;1682501;85;20994;-83
2021/11/19 04:10:49;;;;;;;32.80;16.80;;;;;;;0.79;90.28;98524.36;1674854;85;21022;-83
2021/11/19 04:13:18;;;;;;;31.17;17.87;;;;;;;0.79;90.01;98520.45;1675460;84;21005;-83
2021/11/19 04:15:49;;;;;;;29.57;16.70;;;;;;;0.81;89.99;98512.21;1658999;85;21053;-83
2021/11/19 04:18:17;;;;;;;33.98;16.48;;;;;;;0.79;89.70;98508.27;1682509;85;21375;-83
2021/11/19 04:20:47;;;;;;;34.08;17.00;;;;;;;0.77;89.47;98510.39;1682420;85;21017;-83
2021/11/19 04:23:15;;;;;;;35.98;18.73;;;;;;;0.77;89.51;98506.06;1682487;85;21002;-83
2021/11/19 04:25:43;;;;;;;32.88;16.97;;;;;;;0.78;89.65;98504.31;1669840;84;21506;-83
2021/11/19 04:28:12;;;;;;;35.95;18.92;;;;;;;0.77;89.50;98504.77;1676737;85;21009;-83
2021/11/19 04:30:49;;;;;;;33.78;17.90;;;;;;;0.75;89.58;98500.37;1694585;85;21429;-83
2021/11/19 04:33:18;;;;;;;33.70;17.05;;;;;;;0.71;89.42;98494.64;1661227;84;21060;-84
2021/11/19 04:35:48;;;;;;;35.88;16.40;;;;;;;0.70;89.51;98486.36;1700649;83;21020;-84
2021/11/19 04:38:15;;;;;;;33.83;17.57;;;;;;;0.68;89.24;98491.55;1696702;85;21129;-83
2021/11/19 04:40:45;;;;;;;32.93;17.37;;;;;;;0.61;88.93;98490.55;1696714;85;20949;-83
2021/11/19 04:43:14;;;;;;;31.65;17.35;;;;;;;0.55;89.07;98486.95;1694422;84;21036;-83
2021/11/19 04:45:41;;;;;;;33.33;16.97;;;;;;;0.50;88.98;98478.61;1683794;84;21037;-83
2021/11/19 04:48:10;;;;;;;37.08;18.35;;;;;;;0.45;89.13;98472.88;1697867;84;21060;-83
2021/11/19 04:50:42;;;;;;;34.53;18.80;;;;;;;0.38;89.21;98474.03;1664260;86;21471;-81
2021/11/19 04:53:12;;;;;;;33.35;17.67;;;;;;;0.37;89.23;98477.91;1674749;84;21080;-81
2021/11/19 04:55:40;;;;;;;34.33;17.45;;;;;;;0.31;89.69;98473.48;1678394;84;21474;-81
2021/11/19 04:58:07;;;;;;;37.10;18.87;;;;;;;0.28;89.42;98464.28;1672872;85;21029;-81
2021/11/19 05:00:42;;;;;;;36.10;16.87;;;;;;;0.29;89.20;98488.64;1685008;85;21415;-81
2021/11/19 05:03:13;;;;;;;34.63;16.60;;;;;;;0.24;89.39;98480.70;1682176;85;21029;-81
2021/11/19 05:05:44;;;;;;;32.55;17.45;;;;;;;0.19;88.99;98492.77;1665253;85;21013;-81
2021/11/19 05:08:12;;;;;;;33.65;17.05;;;;;;;0.17;89.01;98502.30;1681564;83;21002;-81
2021/11/19 05:10:42;;;;;;;30.60;17.00;;;;;;;0.12;89.08;98503.49;1677415;85;21022;-81
2021/11/19 05:13:11;;;;;;;31.52;16.73;;;;;;;0.11;89.19;98508.26;1658085;86;21041;-81
2021/11/19 05:15:52;;;;;;;32.20;16.87;;;;;;;0.10;89.25;98505.20;1675883;85;21018;-81
2021/11/19 05:18:22;;;;;;;31.65;16.65;;;;;;;0.08;89.33;98504.31;1680020;85;21450;-81
2021/11/19 05:20:52;;;;;;;30.25;16.95;;;;;;;0.08;89.53;98501.70;1690200;83;20982;-81
2021/11/19 05:23:20;;;;;;;34.08;17.00;;;;;;;0.07;89.63;98507.33;1689225;85;20997;-81
2021/11/19 05:25:49;;;;;;;32.33;16.75;;;;;;;0.08;89.72;98517.34;1689347;85;21065;-81
2021/11/19 05:28:19;;;;;;;31.80;15.85;;;;;;;0.11;90.28;98508.26;1689289;85;21402;-81
2021/11/19 05:30:47;;;;;;;30.88;16.07;;;;;;;0.11;90.09;98506.55;1689261;85;21076;-81
2021/11/19 05:33:17;;;;;;;29.60;16.80;;;;;;;0.13;90.18;98508.75;1681689;85;20997;-81
2021/11/19 05:35:45;;;;;;;29.67;16.00;;;;;;;0.11;90.14;98509.16;1677125;86;21045;-81
2021/11/19 05:38:12;;;;;;;32.03;16.80;;;;;;;0.10;90.24;98507.81;1677551;85;20993;-81
2021/11/19 05:40:39;;;;;;;36.35;17.25;;;;;;;0.09;90.04;98505.61;1677430;85;21470;-81
2021/11/19 05:43:06;;;;;;;33.92;16.40;;;;;;;0.03;89.57;98504.20;1678848;85;21033;-82
2021/11/19 05:45:36;;;;;;;26.87;15.38;;;;;;;-0.02;89.37;98502.81;1685943;83;21010;-82
2021/11/19 05:48:07;;;;;;;28.00;14.75;;;;;;;-0.04;89.18;98512.30;1683724;85;21013;-81
2021/11/19 05:50:40;;;;;;;30.50;15.65;;;;;;;-0.08;89.41;98505.70;1683623;85;21104;-82
2021/11/19 05:53:12;;;;;;;30.92;16.45;;;;;;;-0.09;89.83;98494.39;1665003;85;21462;-81
2021/11/19 05:55:45;;;;;;;29.60;16.20;;;;;;;-0.08;89.38;98497.44;1684282;85;21022;-81
2021/11/19 05:58:15;;;;;;;33.67;17.37;;;;;;;-0.10;89.36;98491.75;1670099;84;21013;-81
2021/11/19 06:00:47;;;;;;;30.90;16.15;;;;;;;-0.07;89.35;98497.03;1688524;84;21030;-81
2021/11/19 06:03:19;;;;;;;33.13;16.23;;;;;;;-0.06;89.50;98493.16;1683740;84;21508;-81
2021/11/19 06:05:47;;;;;;;36.17;17.45;;;;;;;-0.06;90.20;98491.86;1680155;84;21006;-81
2021/11/19 06:08:29;;;;;;;30.00;16.73;;;;;;;-0.01;90.47;98491.53;1678975;84;21470;-82
2021/11/19 06:11:01;;;;;;;33.60;16.52;;;;;;;0.01;90.18;98486.36;1681336;85;22164;-80
2021/11/19 06:13:36;;;;;;;31.60;14.98;;;;;;;0.04;89.91;98486.84;1669910;85;21411;-81
2021/11/19 06:16:08;;;;;;;27.10;15.15;;;;;;;0.11;89.62;98486.11;1669791;86;21038;-81
2021/11/19 06:18:46;;;;;;;32.95;17.25;;;;;;;0.19;89.81;98504.09;1669641;86;21427;-81
2021/11/19 06:21:23;;;;;;;25.62;15.75;;;;;;;0.23;89.43;98481.56;1678867;85;21461;-81
2021/11/19 06:23:55;;;;;;;29.55;16.07;;;;;;;0.28;89.42;98486.89;1693560;85;21052;-81
2021/11/19 06:26:25;;;;;;;32.15;16.35;;;;;;;0.34;89.96;98480.03;1673755;85;21022;-81
2021/11/19 06:29:04;;;;;;;33.58;16.73;;;;;;;0.38;89.53;98488.82;1693631;85;21427;-81
2021/11/19 06:31:24;;;;;;;29.30;16.80;;;;;;;0.42;89.46;98489.34;1679922;84;21019;-81
2021/11/19 06:33:53;;;;;;;29.75;15.90;;;;;;;0.49;89.30;98508.56;1680222;84;21057;-81
2021/11/19 06:36:20;;;;;;;26.75;14.45;;;;;;;0.54;89.68;98509.53;1678663;85;21426;-81
2021/11/19 06:38:49;;;;;;;37.88;18.30;;;;;;;0.63;89.74;98514.06;1681518;85;21410;-82
2021/11/19 06:41:20;;;;;;;41.90;23.65;;;;;;;0.71;89.31;98515.51;1684992;85;21002;-81
2021/11/19 06:44:00;;;;;;;53.42;27.15;;;;;;;0.72;89.40;98513.34;1653894;84;21010;-81
2021/11/19 06:46:48;;;;;;;47.40;27.52;;;;;;;0.75;89.11;98509.50;1624517;88;21095;-81
2021/11/19 06:49:23;;;;;;;64.53;31.35;;;;;;;0.79;89.12;98497.83;1605188;89;21143;-81
2021/11/19 06:52:08;;;;;;;52.00;28.42;;;;;;;0.84;89.16;98510.97;1577847;90;21080;-81
2021/11/19 06:54:38;;;;;;;51.55;27.22;;;;;;;0.89;88.88;98500.19;1623354;87;21093;-81
2021/11/19 06:57:24;;;;;;;55.48;28.42;;;;;;;0.95;89.01;98502.00;1654792;85;21097;-81
2021/11/19 06:59:51;;;;;;;54.85;26.55;;;;;;;1.05;89.17;98500.00;1675813;84;20993;-81
2021/11/19 07:02:19;;;;;;;49.83;24.47;;;;;;;1.12;88.70;98494.45;1671749;85;21455;-81
2021/11/19 07:04:47;;;;;;;38.48;20.68;;;;;;;1.18;88.93;98506.33;1642944;87;21507;-81
2021/11/19 07:07:15;;;;;;;39.98;20.85;;;;;;;1.28;88.71;98506.45;1663807;84;21399;-81
2021/11/19 07:09:44;;;;;;;35.38;19.30;;;;;;;1.30;88.07;98513.90;1681926;84;21017;-82
2021/11/19 07:12:15;;;;;;;32.60;18.23;;;;;;;1.31;88.31;98514.34;1686118;84;21024;-81
2021/11/19 07:14:44;;;;;;;35.92;18.65;;;;;;;1.40;88.40;98503.16;1678043;84;21383;-81
2021/11/19 07:17:12;;;;;;;35.33;19.35;;;;;;;1.44;88.25;98498.44;1670854;85;21443;-81
2021/11/19 07:19:42;;;;;;;34.23;19.57;;;;;;;1.52;88.36;98490.71;1671508;85;21022;-81
2021/11/19 07:22:09;;;;;;;37.55;20.68;;;;;;;1.57;88.09;98498.19;1659173;85;21018;-81
2021/11/19 07:24:39;;;;;;;32.78;17.25;;;;;;;1.61;87.56;98499.14;1673670;84;21057;-81
2021/11/19 07:27:11;;;;;;;26.10;13.62;;;;;;;1.64;87.65;98483.48;1674353;84;21033;-81
2021/11/19 07:29:39;;;;;;;27.67;15.10;;;;;;;1.62;86.99;98455.16;1676445;84;21648;-81
2021/11/19 07:32:24;;;;;;;30.72;13.30;;;;;;;1.66;87.27;98445.21;1673165;84;21007;-81
2021/11/19 07:34:56;;;;;;;24.77;12.82;;;;;;;1.69;86.98;98438.28;1670445;84;21021;-84
2021/11/19 07:37:40;;;;;;;23.05;13.05;;;;;;;1.69;86.29;98429.14;1670282;84;21061;-80
2021/11/19 07:40:19;;;;;;;24.95;13.90;;;;;;;1.66;85.93;98424.30;1662031;86;21097;-80
2021/11/19 07:42:50;;;;;;;24.35;13.45;;;;;;;1.65;86.48;98428.64;1662397;86;21482;-80
2021/11/19 07:45:24;;;;;;;24.87;13.05;;;;;;;1.72;86.64;98425.69;1669530;85;21042;-80
2021/11/19 07:47:58;;;;;;;25.25;13.83;;;;;;;1.77;86.38;98424.42;1660646;85;21010;-81
2021/11/19 07:50:29;;;;;;;24.32;13.72;;;;;;;1.82;86.61;98440.63;1675213;86;21031;-80
2021/11/19 07:53:00;;;;;;;25.37;14.28;;;;;;;1.87;86.52;98442.42;1657455;86;21131;-80
2021/11/19 07:55:30;;;;;;;37.80;19.32;;;;;;;1.93;86.58;98438.15;1638522;87;21093;-80
2021/11/19 07:57:57;;;;;;;84.52;42.60;;;;;;;1.96;86.41;98451.69;1667600;84;21049;-81
2021/11/19 08:00:32;;;;;;;76.55;38.38;;;;;;;2.00;86.60;98461.33;1669737;86;21049;-80
2021/11/19 08:03:02;;;;;;;79.17;38.67;;;;;;;2.01;86.65;98456.95;1669269;86;21034;-81
2021/11/19 08:05:32;;;;;;;72.70;38.50;;;;;;;2.05;86.49;98463.98;1674052;84;20977;-81
2021/11/19 08:08:13;;;;;;;67.92;33.95;;;;;;;2.16;86.90;98451.91;1675934;84;21042;-81
2021/11/19 08:10:45;;;;;;;66.42;33.42;;;;;;;2.36;86.85;98451.25;1675887;84;21018;-80
2021/11/19 08:13:17;;;;;;;58.55;31.12;;;;;;;2.54;87.05;98452.32;1674282;85;21010;-81
2021/11/19 08:15:45;;;;;;;48.33;27.00;;;;;;;2.74;86.88;98460.38;1675207;84;21022;-82
2021/11/19 08:18:24;;;;;;;60.78;29.00;;;;;;;2.93;86.68;98460.52;1650312;84;21022;-82
2021/11/19 08:20:58;;;;;;;53.05;28.50;;;;;;;3.08;86.32;98453.24;1677924;84;20954;-82
2021/11/19 08:23:36;;;;;;;52.63;27.27;;;;;;;3.25;86.37;98466.47;1675747;84;20997;-82
2021/11/19 08:26:21;;;;;;;55.17;27.95;;;;;;;3.36;85.70;98468.73;1676087;84;21336;-82
2021/11/19 08:28:49;;;;;;;49.87;25.13;;;;;;;3.46;85.28;98467.06;1676914;84;21038;-82
2021/11/19 08:31:20;;;;;;;42.33;23.50;;;;;;;3.52;84.28;98464.89;1678043;84;21014;-82
2021/11/19 08:33:48;;;;;;;41.77;23.40;;;;;;;3.59;84.76;98463.20;1669823;86;21065;-82
2021/11/19 08:36:23;;;;;;;40.35;22.85;;;;;;;3.68;84.73;98468.49;1669891;85;21113;-82
2021/11/19 08:38:51;;;;;;;54.27;27.75;;;;;;;3.76;84.92;98461.56;1676290;84;21010;-83
2021/11/19 08:41:20;;;;;;;49.05;26.27;;;;;;;3.87;84.34;98462.05;1673032;85;21451;-83
2021/11/19 08:43:51;;;;;;;45.73;27.65;;;;;;;3.95;83.91;98461.66;1673595;85;21109;-83
2021/11/19 08:46:26;;;;;;;46.55;28.12;;;;;;;4.06;84.57;98461.27;1676037;84;21098;-83
2021/11/19 08:48:53;;;;;;;51.92;29.37;;;;;;;4.13;83.69;98457.34;1672304;85;21029;-86
2021/11/19 08:51:24;;;;;;;52.80;29.15;;;;;;;4.24;83.92;98460.91;1673560;84;21041;-82
2021/11/19 08:53:56;;;;;;;56.13;30.40;;;;;;;4.32;83.59;98451.29;1674799;84;20994;-83
2021/11/19 08:56:25;;;;;;;62.90;33.38;;;;;;;4.39;83.65;98439.06;1673669;84;21438;-89
2021/11/19 08:58:54;;;;;;;67.12;33.60;;;;;;;4.54;83.51;98439.97;1668095;84;21446;-90
2021/11/19 09:01:25;;;;;;;60.90;34.80;;;;;;;4.65;81.82;98434.30;1664870;84;20946;-88
2021/11/19 09:03:51;;;;;;;65.57;36.08;;;;;;;4.76;82.12;98434.31;1677459;84;20986;-84
2021/11/19 09:06:20;;;;;;;65.83;36.75;;;;;;;4.91;82.56;98435.20;1678049;84;21029;-86
2021/11/19 09:08:49;;;;;;;67.87;36.70;;;;;;;5.01;82.28;98441.78;1673512;84;21362;-86
2021/11/19 09:11:22;;;;;;;67.12;35.55;;;;;;;5.14;82.29;98443.97;1671726;84;21061;-86
2021/11/19 09:13:53;;;;;;;63.85;34.35;;;;;;;5.24;81.24;98430.83;1673523;84;21053;-83
2021/11/19 09:16:24;;;;;;;73.97;38.63;;;;;;;5.31;81.32;98426.44;1680001;84;21063;-84
2021/11/19 09:19:19;;;;;;;64.65;35.60;;;;;;;5.38;80.47;98429.05;1676021;84;21081;-87
2021/11/19 09:22:17;;;;;;;61.70;31.42;;;;;;;5.44;80.66;98431.23;1683632;84;21037;-87
2021/11/19 09:24:45;;;;;;;59.33;32.25;;;;;;;5.50;80.40;98422.02;1679057;84;21084;-84
2021/11/19 09:27:18;;;;;;;63.87;32.05;;;;;;;5.52;80.50;98409.30;1686225;84;21056;-86
2021/11/19 09:29:56;;;;;;;52.35;29.18;;;;;;;5.55;78.90;98401.84;1683758;84;20949;-88
2021/11/19 09:32:26;;;;;;;54.50;29.85;;;;;;;5.52;78.07;98396.61;1685461;84;21281;-86
2021/11/19 09:34:56;;;;;;;49.27;28.23;;;;;;;5.49;77.39;98391.35;1683300;84;21002;-87
2021/11/19 09:37:28;;;;;;;45.05;27.22;;;;;;;5.45;77.53;98391.80;1642609;87;21493;-88
2021/11/19 09:39:55;;;;;;;42.10;26.17;;;;;;;5.45;78.50;98382.61;1645916;85;21072;-86
2021/11/19 09:42:51;;;;;;;42.62;25.25;;;;;;;5.45;78.01;98374.72;1687425;84;21451;-88
2021/11/19 09:45:46;;;;;;;39.58;23.55;;;;;;;5.49;78.45;98369.86;1683479;85;21454;-84
2021/11/19 09:48:47;;;;;;;34.60;21.45;;;;;;;5.46;77.56;98361.12;1674056;85;21030;-83
2021/11/19 09:52:03;;;;;;;37.20;22.35;;;;;;;5.50;78.31;98357.60;1671483;84;21097;-85
2021/11/19 09:54:37;;;;;;;34.70;20.08;;;;;;;5.54;77.78;98347.09;1675124;84;21020;-84
2021/11/19 09:57:48;;;;;;;36.65;20.85;;;;;;;5.54;77.38;98340.52;1674884;84;20996;-84
2021/11/19 10:00:46;;;;;;;39.20;20.85;;;;;;;5.59;76.54;98331.71;1677469;84;21001;-86
2021/11/19 10:03:24;;;;;;;35.03;18.92;;;;;;;5.64;76.03;98329.94;1676819;84;21018;-82
2021/11/19 10:06:05;;;;;;;37.48;20.62;;;;;;;5.70;76.37;98333.88;1659915;84;21439;-84
2021/11/19 10:08:57;;;;;;;46.77;22.20;;;;;;;5.80;76.75;98338.21;1673793;84;21032;-86
2021/11/19 10:11:54;;;;;;;36.48;21.85;;;;;;;5.87;74.94;98336.86;1682462;84;21080;-85
2021/11/19 10:14:36;;;;;;;44.33;22.00;;;;;;;6.02;77.11;98331.50;1681610;84;21019;-84
2021/11/19 10:17:31;;;;;;;44.55;23.00;;;;;;;6.21;76.00;98324.85;1678426;84;20992;-84
2021/11/19 10:20:09;;;;;;;39.48;21.20;;;;;;;6.29;75.16;98322.16;1675626;84;20990;-83
2021/11/19 10:22:41;;;;;;;43.90;22.65;;;;;;;6.38;75.71;98307.63;1671673;84;20989;-84
2021/11/19 10:25:19;;;;;;;49.18;26.15;;;;;;;6.46;74.49;98314.14;1677687;84;21004;-83
2021/11/19 10:27:51;;;;;;;49.65;25.88;;;;;;;6.62;74.77;98312.70;1683035;84;20969;-83
2021/11/19 10:30:45;;;;;;;47.38;24.98;;;;;;;6.72;73.77;98311.30;1648235;84;21005;-81
2021/11/19 10:33:31;;;;;;;49.67;25.97;;;;;;;6.86;73.76;98299.30;1672800;84;20937;-85
2021/11/19 10:36:06;;;;;;;48.85;25.70;;;;;;;6.95;72.29;98289.14;1639968;83;21079;-84
2021/11/19 10:39:17;;;;;;;45.20;24.20;;;;;;;6.93;73.09;98289.58;1670429;84;21014;-80
2021/11/19 10:42:18;;;;;;;44.58;23.10;;;;;;;7.15;73.70;98290.69;1650802;85;21129;-82
2021/11/19 10:45:21;;;;;;;43.50;24.02;;;;;;;7.35;71.03;98287.81;1668437;84;21415;-81
2021/11/19 10:48:27;;;;;;;43.10;23.75;;;;;;;7.56;70.93;98289.75;1679199;85;21087;-81
2021/11/19 10:51:10;;;;;;;40.52;20.72;;;;;;;7.62;70.48;98286.17;1685500;85;21056;-83
2021/11/19 10:54:06;;;;;;;38.42;20.45;;;;;;;7.52;66.80;98288.92;1678929;84;21032;-81
2021/11/19 10:57:27;;;;;;;37.40;21.52;;;;;;;7.51;69.56;98283.23;1701300;84;21056;-81
2021/11/19 11:00:17;;;;;;;36.90;21.00;;;;;;;7.52;70.03;98288.92;1683664;84;21065;-81
2021/11/19 11:02:53;;;;;;;37.48;21.05;;;;;;;7.50;70.39;98294.67;1684011;84;20997;-81
2021/11/19 11:05:42;;;;;;;37.98;20.97;;;;;;;7.46;70.61;98292.97;1676834;85;21030;-80
2021/11/19 11:08:26;;;;;;;41.18;21.70;;;;;;;7.39;70.89;98299.19;1672425;85;21001;-80
2021/11/19 11:11:04;;;;;;;43.80;24.18;;;;;;;7.28;70.09;98305.04;1676542;85;21028;-81
2021/11/19 11:13:45;;;;;;;39.75;21.52;;;;;;;7.10;70.48;98293.83;1682692;84;21234;-86
2021/11/19 11:16:25;;;;;;;37.50;20.68;;;;;;;7.00;70.53;98300.94;1684781;84;21045;-83
2021/11/19 11:18:58;;;;;;;33.53;19.40;;;;;;;6.92;70.99;98295.75;1689582;83;21002;-82
2021/11/19 11:21:51;;;;;;;30.95;17.73;;;;;;;6.85;71.21;98296.25;1683658;85;21144;-82
2021/11/19 11:24:45;;;;;;;29.00;17.98;;;;;;;6.77;71.46;98296.75;1683701;85;21101;-83
2021/11/19 11:27:43;;;;;;;32.63;18.02;;;;;;;6.66;71.38;98298.19;1683701;85;21074;-83
2021/11/19 11:30:20;;;;;;;33.40;18.23;;;;;;;6.53;72.06;98291.27;1681045;83;21001;-83
2021/11/19 11:32:59;;;;;;;32.25;17.92;;;;;;;6.45;73.08;98293.52;1691896;84;21064;-83
2021/11/19 11:35:49;;;;;;;31.55;18.25;;;;;;;6.39;73.22;98293.56;1663204;85;21061;-81
2021/11/19 11:38:30;;;;;;;34.65;18.45;;;;;;;6.31;73.62;98295.41;1687139;84;21043;-82
2021/11/19 11:41:23;;;;;;;32.50;19.32;;;;;;;6.20;73.94;98301.59;1671159;84;21021;-83
2021/11/19 11:44:04;;;;;;;31.57;16.80;;;;;;;6.12;74.93;98300.80;1677944;84;21042;-83
2021/11/19 11:46:36;;;;;;;30.40;18.60;;;;;;;6.04;75.00;98303.91;1668253;84;21177;-82
2021/11/19 11:49:41;;;;;;;33.02;18.67;;;;;;;5.98;75.88;98296.88;1665568;85;21037;-83
2021/11/19 11:52:45;;;;;;;36.40;19.37;;;;;;;5.89;77.02;98299.56;1677140;85;20977;-83
2021/11/19 11:55:47;;;;;;;31.00;18.95;;;;;;;5.81;78.18;98294.35;1651441;85;20997;-82
2021/11/19 11:58:25;;;;;;;34.80;18.55;;;;;;;5.73;79.20;98294.86;1660999;85;21463;-78
2021/11/19 12:01:29;;;;;;;34.38;19.30;;;;;;;5.67;78.33;98294.00;1660567;85;21041;-79